Time;durP1;ratioP1;P1;durP2;ratioP2;P2;SDS_P1;SDS_P2;PMS_P1;PMS_P2;Temp;Humidity;BMP_temperature;BMP_pressure;BME280_temperature;BME280_humidity;BME280_pressure;Samples;Min_cycle;Max_cycle;Signal;HPM_P1;HPM_P2
2023/10/31 00:00:40;;;;;;;6.50;2.70;;;;;;;14.58;76.16;95475.77;108739;1253;22557;-78
2023/10/31 00:03:32;;;;;;;5.30;2.80;;;;;;;14.69;75.58;95474.00;108770;1271;23815;-78
2023/10/31 00:06:05;;;;;;;4.30;2.60;;;;;;;14.57;75.48;95466.36;108731;1264;24149;-77
2023/10/31 00:08:36;;;;;;;5.70;2.90;;;;;;;14.37;75.68;95462.44;108696;1271;24547;-78
2023/10/31 00:11:07;;;;;;;5.50;2.70;;;;;;;14.23;75.83;95460.26;108731;1271;22517;-78
2023/10/31 00:13:39;;;;;;;4.30;2.50;;;;;;;14.10;75.92;95454.89;108720;1271;22541;-78
2023/10/31 00:16:10;;;;;;;5.40;2.50;;;;;;;13.98;76.20;95446.89;108733;1271;22630;-78
2023/10/31 00:18:41;;;;;;;5.00;2.80;;;;;;;13.94;76.38;95438.44;108769;1271;22517;-78
2023/10/31 00:21:12;;;;;;;5.30;2.50;;;;;;;13.91;76.53;95445.51;108736;1271;24385;-78
2023/10/31 00:23:47;;;;;;;4.30;2.30;;;;;;;13.91;76.49;95445.13;108711;1271;22518;-77
2023/10/31 00:26:18;;;;;;;4.20;1.90;;;;;;;13.94;76.46;95450.32;108682;1269;22605;-78
2023/10/31 00:28:49;;;;;;;7.20;2.90;;;;;;;14.03;76.17;95444.30;108643;1271;25226;-78
2023/10/31 00:31:20;;;;;;;5.10;2.20;;;;;;;14.11;76.08;95436.61;108741;1271;22535;-78
2023/10/31 00:33:51;;;;;;;3.90;1.80;;;;;;;14.16;75.81;95428.34;108741;1271;23354;-78
2023/10/31 00:36:22;;;;;;;4.00;1.70;;;;;;;14.20;75.80;95425.52;108716;1271;24231;-78
2023/10/31 00:38:52;;;;;;;4.10;1.50;;;;;;;14.53;75.64;95413.87;108752;1271;22541;-78
2023/10/31 00:41:23;;;;;;;3.60;1.40;;;;;;;15.26;74.14;95408.65;108756;1271;25279;-78
2023/10/31 00:43:54;;;;;;;8.50;1.60;;;;;;;15.43;72.83;95404.55;108763;1271;25236;-78
2023/10/31 00:46:25;;;;;;;3.20;1.20;;;;;;;15.54;72.00;95399.16;108714;1271;22551;-78
2023/10/31 00:48:56;;;;;;;2.50;1.20;;;;;;;15.74;71.30;95390.34;108746;1269;22527;-78
2023/10/31 00:51:26;;;;;;;3.80;1.30;;;;;;;15.92;70.50;95393.20;108662;1271;22508;-77
2023/10/31 00:53:57;;;;;;;2.30;1.10;;;;;;;16.10;69.50;95390.37;108723;1271;22548;-78
2023/10/31 00:56:28;;;;;;;5.10;1.60;;;;;;;16.28;68.54;95387.48;108707;1271;22513;-78
2023/10/31 00:58:59;;;;;;;4.30;1.30;;;;;;;16.38;67.85;95378.41;108740;1271;22513;-78
2023/10/31 01:01:30;;;;;;;3.20;1.30;;;;;;;16.43;67.05;95375.69;108730;1269;22534;-78
2023/10/31 01:04:01;;;;;;;3.30;1.30;;;;;;;16.51;65.90;95373.77;108766;1269;22527;-78
2023/10/31 01:06:32;;;;;;;5.40;1.20;;;;;;;16.67;65.25;95369.00;108641;1271;26469;-78
2023/10/31 01:09:03;;;;;;;3.80;1.30;;;;;;;16.64;65.01;95350.35;108722;1269;22521;-78
2023/10/31 01:11:34;;;;;;;3.90;1.60;;;;;;;16.54;64.94;95346.39;108730;1271;22557;-78
2023/10/31 01:14:05;;;;;;;4.80;1.70;;;;;;;16.44;64.76;95345.84;108729;1271;22560;-77
2023/10/31 01:16:37;;;;;;;3.80;1.80;;;;;;;16.36;64.81;95336.94;108683;1270;22530;-78
2023/10/31 01:19:08;;;;;;;4.60;1.90;;;;;;;16.30;64.72;95325.39;108713;1271;22528;-78
2023/10/31 01:21:41;;;;;;;4.30;1.50;;;;;;;16.27;64.37;95316.85;108674;1253;24261;-78
2023/10/31 01:24:12;;;;;;;4.10;1.70;;;;;;;16.27;64.10;95316.09;108726;1271;24191;-77
2023/10/31 01:26:43;;;;;;;4.70;1.60;;;;;;;16.29;63.86;95305.95;108675;1271;22545;-78
2023/10/31 01:29:14;;;;;;;3.90;1.50;;;;;;;16.30;63.75;95303.16;108765;1271;23072;-78
2023/10/31 01:31:45;;;;;;;4.20;1.70;;;;;;;16.29;63.76;95298.48;108751;1271;25043;-78
2023/10/31 01:34:16;;;;;;;3.50;1.40;;;;;;;16.29;63.42;95289.70;108712;1270;25322;-77
2023/10/31 01:36:47;;;;;;;2.80;1.30;;;;;;;16.36;63.27;95283.84;108742;1271;22541;-78
2023/10/31 01:39:18;;;;;;;4.40;1.50;;;;;;;16.38;62.93;95285.48;108718;1270;25394;-78
2023/10/31 01:41:49;;;;;;;4.50;1.50;;;;;;;16.37;62.96;95275.98;108701;1271;23268;-78
2023/10/31 01:44:19;;;;;;;6.60;1.80;;;;;;;16.30;62.83;95268.02;108667;1271;29196;-78
2023/10/31 01:46:50;;;;;;;2.20;1.10;;;;;;;16.27;62.77;95270.46;108765;1271;22540;-78
2023/10/31 01:49:21;;;;;;;3.50;1.00;;;;;;;16.39;60.98;95267.08;108740;1271;23279;-78
2023/10/31 01:51:53;;;;;;;4.30;1.20;;;;;;;16.96;59.55;95267.41;108729;1269;22548;-78
2023/10/31 01:54:24;;;;;;;4.40;0.90;;;;;;;17.22;58.77;95271.45;108719;1271;22518;-78
2023/10/31 01:56:59;;;;;;;2.00;1.00;;;;;;;17.32;58.43;95272.34;108731;1271;25409;-78
2023/10/31 01:59:30;;;;;;;3.20;1.00;;;;;;;17.42;57.42;95275.52;108749;1271;22531;-78
2023/10/31 02:02:01;;;;;;;2.30;1.10;;;;;;;17.69;55.73;95273.20;108702;1271;22972;-78
2023/10/31 02:04:32;;;;;;;2.00;1.10;;;;;;;17.91;55.53;95267.38;108730;1271;22533;-78
2023/10/31 02:07:03;;;;;;;2.10;0.80;;;;;;;17.97;55.01;95270.86;108711;1272;22530;-78
2023/10/31 02:09:34;;;;;;;2.30;1.10;;;;;;;18.10;54.45;95260.73;108756;1261;22519;-78
2023/10/31 02:12:06;;;;;;;7.00;1.10;;;;;;;18.27;53.23;95254.57;108690;1271;22519;-78
2023/10/31 02:14:37;;;;;;;2.90;1.10;;;;;;;18.38;52.85;95252.49;108768;1271;30846;-78
2023/10/31 02:17:08;;;;;;;2.60;0.80;;;;;;;18.47;51.89;95241.76;108746;1271;22528;-78
2023/10/31 02:19:38;;;;;;;3.20;0.90;;;;;;;18.63;50.67;95235.39;108698;1271;22977;-78
2023/10/31 02:22:10;;;;;;;2.30;1.30;;;;;;;18.59;51.40;95236.47;108718;1272;22524;-78
2023/10/31 02:24:42;;;;;;;2.00;0.80;;;;;;;18.50;51.48;95231.90;108760;1271;27576;-78
2023/10/31 02:27:13;;;;;;;3.00;1.20;;;;;;;18.48;51.62;95237.85;108697;1271;22504;-78
2023/10/31 02:29:44;;;;;;;2.80;0.90;;;;;;;18.38;51.65;95234.02;108708;1263;25243;-78
2023/10/31 02:32:15;;;;;;;2.80;0.70;;;;;;;18.40;51.12;95237.27;108727;1269;22519;-78
2023/10/31 02:34:47;;;;;;;2.90;1.20;;;;;;;18.37;51.39;95230.95;108725;1271;22519;-78
2023/10/31 02:37:17;;;;;;;2.00;1.00;;;;;;;18.27;51.55;95216.69;108727;1271;22527;-78
2023/10/31 02:39:48;;;;;;;2.70;1.10;;;;;;;18.17;51.89;95208.65;108726;1271;25469;-78
2023/10/31 02:42:19;;;;;;;5.50;1.30;;;;;;;18.03;51.97;95211.83;108721;1271;22515;-78
2023/10/31 02:44:50;;;;;;;2.70;1.10;;;;;;;17.91;52.16;95212.31;108738;1271;25763;-78
2023/10/31 02:47:21;;;;;;;3.60;1.20;;;;;;;17.81;52.24;95211.00;108768;1270;22518;-78
2023/10/31 02:49:52;;;;;;;3.10;1.60;;;;;;;17.75;52.28;95204.80;108733;1271;22547;-78
2023/10/31 02:52:23;;;;;;;1.60;1.00;;;;;;;17.71;52.27;95199.56;108744;1270;22531;-78
2023/10/31 02:54:54;;;;;;;4.50;1.00;;;;;;;17.68;52.29;95197.38;108726;1270;22555;-78
2023/10/31 02:57:25;;;;;;;1.80;0.90;;;;;;;17.70;52.25;95194.88;108738;1271;22650;-78
2023/10/31 02:59:55;;;;;;;2.90;1.00;;;;;;;17.67;52.16;95193.05;108726;1271;22745;-78
2023/10/31 03:02:26;;;;;;;1.80;1.00;;;;;;;17.68;52.20;95194.98;108756;1271;24290;-78
2023/10/31 03:04:57;;;;;;;2.70;1.00;;;;;;;17.69;51.93;95196.55;108724;1271;25323;-78
2023/10/31 03:07:28;;;;;;;5.40;1.20;;;;;;;17.78;51.53;95201.61;108691;1270;22527;-78
2023/10/31 03:09:59;;;;;;;3.90;1.10;;;;;;;17.83;51.42;95202.90;108743;1271;22550;-78
2023/10/31 03:12:30;;;;;;;1.90;1.40;;;;;;;17.94;50.76;95205.00;108743;1271;22699;-78
2023/10/31 03:15:01;;;;;;;3.90;1.20;;;;;;;18.01;50.71;95200.44;108707;1271;25285;-78
2023/10/31 03:17:32;;;;;;;5.30;1.00;;;;;;;18.09;50.16;95199.65;108735;1270;24242;-78
2023/10/31 03:20:03;;;;;;;4.80;1.30;;;;;;;18.30;49.08;95201.80;108795;1271;23308;-78
2023/10/31 03:22:34;;;;;;;4.00;1.10;;;;;;;18.50;49.04;95203.83;108825;1264;22628;-78
2023/10/31 03:25:06;;;;;;;4.10;1.10;;;;;;;18.52;49.33;95208.69;108751;1271;24279;-77
2023/10/31 03:27:37;;;;;;;4.70;1.60;;;;;;;18.53;49.18;95206.48;108774;1271;22519;-78
2023/10/31 03:30:10;;;;;;;1.30;0.70;;;;;;;18.56;49.32;95209.42;108751;1271;22980;-78
2023/10/31 03:32:41;;;;;;;4.60;1.00;;;;;;;18.51;49.52;95206.84;108814;1264;24241;-78
2023/10/31 03:35:12;;;;;;;5.30;1.10;;;;;;;18.52;49.24;95195.73;108774;1271;22537;-78
2023/10/31 03:37:43;;;;;;;3.10;1.00;;;;;;;18.60;49.23;95186.34;108798;1270;22583;-78
2023/10/31 03:40:15;;;;;;;3.40;1.00;;;;;;;18.65;48.98;95170.69;108751;1271;25404;-78
2023/10/31 03:42:48;;;;;;;2.70;1.20;;;;;;;18.64;49.28;95164.77;108758;1267;22529;-78
2023/10/31 03:45:18;;;;;;;4.70;1.30;;;;;;;18.61;49.00;95159.89;108779;1267;22642;-78
2023/10/31 03:47:49;;;;;;;6.60;1.60;;;;;;;18.73;48.97;95166.05;108802;1271;23331;-78
2023/10/31 03:50:20;;;;;;;4.20;1.50;;;;;;;18.71;48.82;95161.34;108742;1268;22520;-78
2023/10/31 03:52:51;;;;;;;4.50;0.90;;;;;;;18.72;48.81;95152.52;108747;1271;22548;-78
2023/10/31 03:55:22;;;;;;;3.60;1.20;;;;;;;18.69;49.08;95138.45;108721;1271;22925;-78
2023/10/31 03:57:52;;;;;;;3.80;1.20;;;;;;;18.66;48.94;95130.98;108746;1271;23719;-78
2023/10/31 04:00:23;;;;;;;5.80;1.40;;;;;;;18.72;48.61;95130.83;108710;1268;22507;-78
2023/10/31 04:02:54;;;;;;;3.10;1.30;;;;;;;18.79;48.38;95135.66;108782;1271;22560;-78
2023/10/31 04:05:25;;;;;;;5.50;1.20;;;;;;;18.74;48.52;95138.45;108739;1266;22589;-78
2023/10/31 04:07:56;;;;;;;2.60;1.10;;;;;;;18.72;48.39;95134.73;108716;1267;22624;-78
2023/10/31 04:10:27;;;;;;;5.30;1.40;;;;;;;18.67;48.23;95135.05;108792;1270;24211;-78
2023/10/31 04:12:58;;;;;;;4.80;1.20;;;;;;;18.65;48.50;95133.66;108795;1267;22528;-78
2023/10/31 04:15:29;;;;;;;2.50;1.10;;;;;;;18.65;48.30;95137.88;108736;1260;22942;-78
2023/10/31 04:18:00;;;;;;;4.60;1.30;;;;;;;18.65;47.98;95132.89;108777;1271;22522;-78
2023/10/31 04:20:30;;;;;;;4.30;1.40;;;;;;;18.63;47.91;95125.35;108771;1271;22952;-78
2023/10/31 04:23:01;;;;;;;5.40;1.40;;;;;;;18.63;47.51;95113.77;108760;1271;22937;-78
2023/10/31 04:25:32;;;;;;;2.30;1.20;;;;;;;18.71;47.29;95109.11;108726;1267;24388;-78
2023/10/31 04:28:03;;;;;;;2.80;1.30;;;;;;;18.73;47.42;95114.80;108762;1271;22570;-78
2023/10/31 04:30:34;;;;;;;3.40;1.50;;;;;;;18.79;46.79;95110.27;108769;1271;22540;-78
2023/10/31 04:33:05;;;;;;;2.40;1.00;;;;;;;18.86;46.79;95104.36;108813;1271;23463;-78
2023/10/31 04:35:36;;;;;;;1.90;1.10;;;;;;;18.85;46.61;95106.02;108759;1271;22582;-78
2023/10/31 04:38:06;;;;;;;3.70;1.40;;;;;;;18.84;46.83;95106.10;108792;1271;23289;-78
2023/10/31 04:40:37;;;;;;;4.20;1.20;;;;;;;18.83;47.06;95109.77;108777;1271;22556;-78
2023/10/31 04:43:08;;;;;;;4.10;1.50;;;;;;;18.80;46.92;95113.04;108836;1271;24286;-78
2023/10/31 04:45:39;;;;;;;4.70;1.80;;;;;;;18.80;47.04;95116.42;108709;1271;22620;-78
2023/10/31 04:48:10;;;;;;;2.90;1.40;;;;;;;18.73;47.51;95118.80;108756;1264;22527;-78
2023/10/31 04:50:41;;;;;;;3.50;1.60;;;;;;;18.62;47.91;95119.72;108772;1271;23191;-78
2023/10/31 04:53:13;;;;;;;3.50;1.20;;;;;;;18.46;48.36;95113.08;108808;1271;22514;-79
2023/10/31 04:55:43;;;;;;;5.00;1.70;;;;;;;18.29;48.93;95116.16;108799;1271;22521;-78
2023/10/31 04:58:14;;;;;;;3.20;1.60;;;;;;;18.15;49.54;95112.83;108779;1264;22566;-78
2023/10/31 05:00:45;;;;;;;4.10;1.70;;;;;;;17.94;50.10;95113.67;108786;1271;22569;-79
2023/10/31 05:03:16;;;;;;;5.40;1.70;;;;;;;17.71;50.48;95104.52;108796;1271;22518;-78
2023/10/31 05:05:47;;;;;;;6.70;2.00;;;;;;;17.57;50.62;95093.03;108728;1271;22635;-78
2023/10/31 05:08:18;;;;;;;4.80;1.70;;;;;;;17.44;51.03;95091.00;108748;1264;22517;-78
2023/10/31 05:10:49;;;;;;;3.50;1.80;;;;;;;17.34;51.18;95093.45;108755;1271;22519;-78
2023/10/31 05:13:20;;;;;;;3.60;1.50;;;;;;;17.29;51.44;95097.80;108748;1264;26560;-78
2023/10/31 05:15:51;;;;;;;3.30;1.80;;;;;;;17.22;51.85;95106.17;108743;1267;25356;-78
2023/10/31 05:18:22;;;;;;;7.50;3.10;;;;;;;17.12;52.07;95112.20;108828;1271;25377;-78
2023/10/31 05:20:53;;;;;;;3.20;1.80;;;;;;;17.02;52.29;95107.20;108765;1271;25359;-78
2023/10/31 05:23:24;;;;;;;3.30;2.10;;;;;;;16.91;52.43;95110.99;108796;1267;22512;-78
2023/10/31 05:25:55;;;;;;;5.20;2.10;;;;;;;16.84;52.57;95119.58;108769;1271;26680;-78
2023/10/31 05:28:26;;;;;;;4.60;2.00;;;;;;;16.78;52.81;95120.92;108775;1271;22519;-78
2023/10/31 05:30:57;;;;;;;5.60;1.90;;;;;;;16.69;53.14;95126.45;108746;1264;22544;-78
2023/10/31 05:33:28;;;;;;;8.00;2.00;;;;;;;16.54;53.31;95142.12;108745;1268;22519;-78
2023/10/31 05:35:59;;;;;;;3.30;1.80;;;;;;;16.44;53.66;95148.88;108757;1264;24262;-78
2023/10/31 05:38:30;;;;;;;5.40;1.90;;;;;;;16.38;54.09;95146.77;108783;1271;22541;-78
2023/10/31 05:41:01;;;;;;;6.00;2.00;;;;;;;16.28;54.40;95146.02;108784;1271;22534;-78
2023/10/31 05:43:33;;;;;;;5.00;2.10;;;;;;;16.19;54.73;95134.23;108848;1271;22529;-78
2023/10/31 05:46:05;;;;;;;4.00;1.80;;;;;;;16.13;54.83;95127.59;108726;1265;23322;-78
2023/10/31 05:48:36;;;;;;;5.50;2.10;;;;;;;16.05;55.14;95136.59;108774;1271;22557;-78
2023/10/31 05:51:11;;;;;;;5.60;2.10;;;;;;;15.91;55.29;95146.20;108772;1266;22510;-78
2023/10/31 05:53:44;;;;;;;3.60;1.80;;;;;;;15.79;56.04;95126.15;108763;1271;25319;-78
2023/10/31 05:56:16;;;;;;;4.90;1.80;;;;;;;15.69;56.56;95138.92;108770;1271;22547;-78
2023/10/31 05:58:47;;;;;;;4.40;2.10;;;;;;;15.62;57.11;95134.84;108807;1271;22526;-78
2023/10/31 06:01:18;;;;;;;5.60;2.10;;;;;;;15.53;57.32;95142.25;108752;1271;22506;-78
2023/10/31 06:03:49;;;;;;;3.90;2.10;;;;;;;15.32;57.41;95136.40;108788;1271;22524;-78
2023/10/31 06:06:21;;;;;;;3.70;2.10;;;;;;;15.13;57.86;95130.89;108783;1271;22527;-78
2023/10/31 06:08:52;;;;;;;4.70;2.00;;;;;;;15.06;58.10;95121.54;108794;1271;22549;-78
2023/10/31 06:11:22;;;;;;;3.60;1.90;;;;;;;15.03;58.56;95122.10;108739;1271;22521;-78
2023/10/31 06:13:53;;;;;;;4.80;1.80;;;;;;;14.90;59.10;95118.69;108757;1271;22521;-77
2023/10/31 06:16:24;;;;;;;4.10;1.70;;;;;;;14.74;59.73;95123.23;108784;1271;24363;-78
2023/10/31 06:18:55;;;;;;;4.70;1.90;;;;;;;14.65;60.25;95119.79;108554;1257;224856;-78
2023/10/31 06:21:26;;;;;;;3.50;2.10;;;;;;;14.62;60.90;95120.90;108804;1271;25237;-78
2023/10/31 06:23:57;;;;;;;3.10;1.60;;;;;;;14.61;61.25;95126.30;108778;1265;24988;-78
2023/10/31 06:26:36;;;;;;;4.30;1.60;;;;;;;14.63;61.57;95131.06;108743;1271;22571;-78
2023/10/31 06:29:07;;;;;;;2.80;1.40;;;;;;;14.65;61.80;95141.13;108788;1271;22585;-78
2023/10/31 06:31:38;;;;;;;9.40;2.30;;;;;;;14.64;62.34;95143.31;108775;1264;23335;-78
2023/10/31 06:34:09;;;;;;;5.80;1.80;;;;;;;14.53;62.60;95131.11;108786;1271;22750;-78
2023/10/31 06:36:40;;;;;;;4.70;1.60;;;;;;;14.52;62.46;95123.61;108812;1271;22520;-78
2023/10/31 06:39:10;;;;;;;5.00;1.50;;;;;;;14.85;61.81;95129.71;108758;1269;25340;-78
2023/10/31 06:41:42;;;;;;;3.50;1.70;;;;;;;15.24;61.28;95134.67;108774;1271;22524;-78
2023/10/31 06:44:13;;;;;;;4.10;1.50;;;;;;;15.75;60.20;95137.58;108808;1271;22514;-77
2023/10/31 06:46:44;;;;;;;2.90;1.60;;;;;;;16.22;58.82;95134.21;108759;1271;22661;-78
2023/10/31 06:49:14;;;;;;;3.60;1.50;;;;;;;16.66;57.20;95135.89;108797;1271;24279;-78
2023/10/31 06:51:46;;;;;;;4.80;1.40;;;;;;;16.96;56.29;95133.56;108828;1264;25369;-78
2023/10/31 06:54:17;;;;;;;5.90;1.40;;;;;;;17.09;55.90;95148.19;108847;1271;22521;-78
2023/10/31 06:56:47;;;;;;;6.50;1.60;;;;;;;17.12;55.72;95154.83;108819;1271;22525;-78
2023/10/31 06:59:19;;;;;;;3.20;1.50;;;;;;;17.17;55.43;95150.64;108789;1264;22514;-78
2023/10/31 07:01:50;;;;;;;5.00;1.50;;;;;;;17.28;54.84;95149.52;108818;1269;22524;-79
2023/10/31 07:04:21;;;;;;;7.10;1.40;;;;;;;17.39;54.53;95147.25;108777;1271;22542;-78
2023/10/31 07:06:56;;;;;;;2.50;1.30;;;;;;;17.47;54.39;95148.16;108795;1264;22510;-79
2023/10/31 07:09:28;;;;;;;3.50;1.60;;;;;;;17.56;54.06;95153.20;108702;1269;22526;-79
2023/10/31 07:11:59;;;;;;;4.60;1.10;;;;;;;17.65;53.65;95142.02;108772;1265;22521;-79
2023/10/31 07:14:30;;;;;;;3.60;1.30;;;;;;;17.76;53.04;95141.91;108748;1265;22564;-78
2023/10/31 07:17:01;;;;;;;3.50;1.30;;;;;;;17.91;52.65;95147.20;108778;1266;22575;-79
2023/10/31 07:19:32;;;;;;;3.30;1.10;;;;;;;18.00;52.70;95143.88;108775;1271;22517;-79
2023/10/31 07:22:03;;;;;;;3.80;1.30;;;;;;;18.04;52.82;95140.58;108807;1271;24115;-79
2023/10/31 07:24:34;;;;;;;4.50;1.60;;;;;;;18.08;53.15;95138.41;108766;1264;22570;-78
2023/10/31 07:27:05;;;;;;;4.70;2.00;;;;;;;18.09;53.19;95134.82;108841;1271;24229;-79
2023/10/31 07:29:39;;;;;;;4.20;1.40;;;;;;;18.07;53.14;95119.48;108784;1271;22518;-79
2023/10/31 07:32:11;;;;;;;5.60;1.60;;;;;;;18.09;53.50;95120.80;108862;1271;22537;-79
2023/10/31 07:34:44;;;;;;;3.30;1.60;;;;;;;18.13;53.13;95100.76;108788;1262;22551;-78
2023/10/31 07:37:15;;;;;;;3.60;1.30;;;;;;;18.19;52.75;95079.46;108830;1271;22531;-79
2023/10/31 07:39:46;;;;;;;4.80;1.80;;;;;;;18.27;52.50;95073.06;108761;1271;22528;-79
2023/10/31 07:42:17;;;;;;;4.30;1.40;;;;;;;18.37;52.43;95071.88;108808;1271;25390;-79
2023/10/31 07:44:47;;;;;;;4.90;1.20;;;;;;;18.46;52.54;95104.88;108736;1271;22500;-79
2023/10/31 07:47:18;;;;;;;2.20;1.10;;;;;;;18.42;52.15;95102.20;108796;1271;22525;-79
2023/10/31 07:49:50;;;;;;;4.80;1.70;;;;;;;18.44;52.46;95102.70;108810;1263;24265;-79
2023/10/31 07:52:20;;;;;;;4.00;1.60;;;;;;;18.46;52.68;95106.80;108808;1271;22580;-79
2023/10/31 07:54:52;;;;;;;5.80;1.70;;;;;;;18.45;53.01;95124.19;108778;1271;22549;-79
2023/10/31 07:57:22;;;;;;;2.40;0.90;;;;;;;18.44;53.20;95128.77;108849;1271;22518;-79
2023/10/31 07:59:53;;;;;;;2.30;1.00;;;;;;;18.41;52.69;95140.38;108786;1268;22528;-79
2023/10/31 08:02:24;;;;;;;2.70;0.80;;;;;;;18.36;52.38;95147.23;108754;1264;22534;-79
2023/10/31 08:04:55;;;;;;;3.70;1.20;;;;;;;18.33;52.51;95152.48;108795;1271;25390;-79
2023/10/31 08:07:29;;;;;;;3.60;0.90;;;;;;;18.26;52.97;95162.18;108722;1271;22660;-79
2023/10/31 08:10:00;;;;;;;1.50;0.80;;;;;;;18.20;53.22;95168.62;108817;1264;22535;-79
2023/10/31 08:12:31;;;;;;;2.20;0.90;;;;;;;18.15;53.56;95171.23;108828;1265;25370;-79
2023/10/31 08:15:02;;;;;;;2.30;0.90;;;;;;;18.12;53.77;95178.39;108797;1265;22518;-79
2023/10/31 08:17:33;;;;;;;2.80;0.90;;;;;;;18.09;54.01;95173.13;108801;1265;26544;-77
2023/10/31 08:20:05;;;;;;;1.90;0.90;;;;;;;18.03;54.19;95168.98;108832;1264;22558;-76
2023/10/31 08:22:36;;;;;;;2.50;1.10;;;;;;;18.00;54.43;95165.17;108787;1266;24465;-79
2023/10/31 08:25:09;;;;;;;2.60;1.00;;;;;;;17.97;54.61;95171.80;108781;1264;23289;-78
2023/10/31 08:27:40;;;;;;;1.70;0.80;;;;;;;17.95;54.60;95176.83;108818;1265;22769;-78
2023/10/31 08:30:13;;;;;;;3.10;0.90;;;;;;;17.97;54.99;95179.30;108828;1271;22515;-78
2023/10/31 08:32:43;;;;;;;1.70;0.80;;;;;;;17.95;54.85;95177.20;108834;1271;25472;-79
2023/10/31 08:35:15;;;;;;;2.30;0.90;;;;;;;17.97;54.94;95163.60;108800;1271;23187;-79
2023/10/31 08:37:46;;;;;;;2.20;1.00;;;;;;;17.96;55.07;95158.44;108795;1264;25398;-78
2023/10/31 08:40:16;;;;;;;1.40;0.80;;;;;;;17.97;55.19;95152.95;108798;1266;22550;-78
2023/10/31 08:42:47;;;;;;;1.80;0.60;;;;;;;17.95;55.59;95140.44;108789;1271;22530;-78
2023/10/31 08:45:18;;;;;;;2.40;0.90;;;;;;;17.88;55.75;95141.18;108858;1271;22524;-78
2023/10/31 08:47:50;;;;;;;1.50;0.60;;;;;;;17.81;56.27;95145.82;108835;1271;22649;-78
2023/10/31 08:50:20;;;;;;;1.40;0.90;;;;;;;17.77;56.28;95149.20;108809;1271;24275;-79
2023/10/31 08:52:51;;;;;;;2.70;1.40;;;;;;;17.73;56.36;95150.83;108784;1271;22725;-79
2023/10/31 08:55:22;;;;;;;2.80;1.10;;;;;;;17.68;56.62;95156.48;108766;1271;22526;-78
2023/10/31 08:57:53;;;;;;;1.70;1.10;;;;;;;17.66;56.64;95154.52;108729;1271;23777;-78
2023/10/31 09:00:24;;;;;;;3.10;0.90;;;;;;;17.65;56.69;95168.67;108818;1271;24275;-79
2023/10/31 09:02:55;;;;;;;2.70;0.80;;;;;;;17.66;56.81;95163.10;108782;1271;22531;-78
2023/10/31 09:05:29;;;;;;;4.00;0.90;;;;;;;17.67;56.68;95159.52;108803;1271;22525;-78
2023/10/31 09:08:00;;;;;;;3.80;1.00;;;;;;;17.68;56.71;95170.02;108791;1268;22514;-78
2023/10/31 09:10:33;;;;;;;3.40;1.40;;;;;;;17.68;56.69;95173.50;108761;1271;22558;-78
2023/10/31 09:13:04;;;;;;;2.90;1.50;;;;;;;17.67;56.78;95174.98;108818;1271;22528;-79
2023/10/31 09:15:35;;;;;;;3.80;1.40;;;;;;;17.67;56.80;95177.20;108799;1271;22545;-78
2023/10/31 09:18:07;;;;;;;2.70;1.50;;;;;;;17.67;57.00;95179.19;108838;1271;22518;-79
2023/10/31 09:20:38;;;;;;;4.70;1.20;;;;;;;17.67;57.02;95188.61;108767;1271;22630;-79
2023/10/31 09:23:09;;;;;;;5.00;1.20;;;;;;;17.69;57.05;95194.79;108763;1265;24262;-79
2023/10/31 09:25:40;;;;;;;5.30;1.60;;;;;;;17.67;57.00;95195.42;108730;1271;22631;-78
2023/10/31 09:28:11;;;;;;;3.80;1.50;;;;;;;17.65;57.05;95201.67;108810;1264;22511;-78
2023/10/31 09:30:42;;;;;;;4.40;1.60;;;;;;;17.63;56.95;95212.21;108779;1271;24216;-78
2023/10/31 09:33:13;;;;;;;3.20;1.70;;;;;;;17.61;57.05;95215.31;108781;1266;22536;-78
2023/10/31 09:35:44;;;;;;;8.40;2.80;;;;;;;17.57;57.11;95218.83;108743;1271;29788;-79
2023/10/31 09:38:15;;;;;;;7.10;2.60;;;;;;;17.52;56.90;95211.17;108764;1271;25331;-79
2023/10/31 09:40:46;;;;;;;5.00;2.30;;;;;;;17.50;57.03;95220.40;108740;1271;25342;-78
2023/10/31 09:43:17;;;;;;;3.20;1.50;;;;;;;17.46;57.13;95223.70;108784;1271;22515;-78
2023/10/31 09:45:49;;;;;;;3.40;1.50;;;;;;;17.42;57.27;95215.88;108791;1268;24315;-78
2023/10/31 09:48:21;;;;;;;3.70;1.50;;;;;;;17.39;57.23;95217.75;108763;1271;22547;-78
2023/10/31 09:50:52;;;;;;;2.80;1.00;;;;;;;17.41;57.27;95217.78;108745;1268;22520;-79
2023/10/31 09:53:24;;;;;;;2.40;1.20;;;;;;;17.38;57.17;95213.23;108828;1265;22524;-78
2023/10/31 09:55:56;;;;;;;3.80;1.00;;;;;;;17.34;56.61;95210.48;108758;1271;22518;-78
2023/10/31 09:58:28;;;;;;;2.90;0.80;;;;;;;17.32;56.40;95214.41;108791;1265;22556;-78
2023/10/31 10:00:59;;;;;;;4.60;1.00;;;;;;;17.32;56.02;95216.62;108749;1266;22528;-78
2023/10/31 10:03:30;;;;;;;4.90;1.40;;;;;;;17.29;56.20;95220.38;108776;1271;25398;-78
2023/10/31 10:06:03;;;;;;;4.60;1.50;;;;;;;17.22;56.27;95219.51;108732;1271;22696;-78
2023/10/31 10:08:37;;;;;;;3.80;1.30;;;;;;;17.16;56.37;95211.11;108768;1268;22603;-79
2023/10/31 10:11:09;;;;;;;4.80;1.70;;;;;;;17.08;56.48;95220.55;108759;1271;22524;-79
2023/10/31 10:13:40;;;;;;;2.40;1.10;;;;;;;17.04;56.64;95216.27;108844;1264;22568;-79
2023/10/31 10:16:12;;;;;;;5.40;2.30;;;;;;;17.00;56.89;95228.94;108791;1271;23829;-79
2023/10/31 10:18:44;;;;;;;7.10;3.20;;;;;;;16.93;56.94;95229.88;108855;1271;22620;-79
2023/10/31 10:21:16;;;;;;;6.10;2.60;;;;;;;16.85;57.29;95234.91;108759;1271;22511;-79
2023/10/31 10:23:52;;;;;;;2.10;1.30;;;;;;;16.77;57.32;95233.67;108837;1265;22542;-79
2023/10/31 10:26:25;;;;;;;3.20;1.50;;;;;;;16.65;57.54;95212.79;108727;1271;22544;-78
2023/10/31 10:28:56;;;;;;;7.10;2.10;;;;;;;16.61;57.66;95218.75;108729;1271;22524;-79
2023/10/31 10:31:27;;;;;;;5.40;1.20;;;;;;;16.59;57.74;95202.99;108818;1271;22528;-79
2023/10/31 10:34:01;;;;;;;4.00;1.60;;;;;;;16.51;57.98;95210.34;108784;1265;22554;-79
2023/10/31 10:36:34;;;;;;;3.00;1.80;;;;;;;16.42;58.42;95211.58;108750;1271;22530;-79
2023/10/31 10:39:07;;;;;;;5.00;1.70;;;;;;;16.30;58.81;95206.42;108780;1271;23020;-79
2023/10/31 10:41:42;;;;;;;7.40;2.60;;;;;;;16.16;59.32;95195.20;108726;1271;22531;-79
2023/10/31 10:44:14;;;;;;;5.00;2.20;;;;;;;16.03;59.87;95217.05;108789;1271;22512;-78
2023/10/31 10:46:51;;;;;;;5.50;2.50;;;;;;;15.95;60.30;95197.93;108801;1269;22518;-79
2023/10/31 10:49:25;;;;;;;3.80;1.50;;;;;;;15.86;60.92;95213.29;108765;1268;23919;-79
2023/10/31 10:52:04;;;;;;;5.00;1.60;;;;;;;15.82;61.17;95199.75;108747;1265;22546;-79
2023/10/31 10:54:38;;;;;;;;;;;;;;;15.83;61.19;95205.13;108745;1264;22511;-78
2023/10/31 10:57:15;;;;;;;3.10;1.70;;;;;;;15.88;61.28;95213.19;108800;1264;25409;-78
2023/10/31 10:59:51;;;;;;;3.80;1.30;;;;;;;15.88;61.41;95229.38;108798;1264;24443;-79
2023/10/31 11:02:23;;;;;;;4.20;1.70;;;;;;;15.87;61.55;95244.07;108757;1269;22520;-79
2023/10/31 11:04:54;;;;;;;6.80;2.70;;;;;;;15.85;61.72;95237.00;108786;1265;23321;-78
2023/10/31 11:07:28;;;;;;;4.00;1.70;;;;;;;15.83;61.97;95237.05;108738;1265;22565;-79
2023/10/31 11:10:02;;;;;;;2.90;1.40;;;;;;;15.80;62.26;95253.84;108768;1271;22534;-78
2023/10/31 11:12:34;;;;;;;6.50;1.60;;;;;;;15.75;62.76;95249.83;108766;1271;25714;-79
2023/10/31 11:15:06;;;;;;;5.20;1.40;;;;;;;15.71;63.08;95262.61;108765;1271;23471;-78
2023/10/31 11:17:40;;;;;;;3.10;1.80;;;;;;;15.69;63.34;95260.04;108826;1265;25250;-78
2023/10/31 11:20:14;;;;;;;2.50;1.40;;;;;;;15.68;63.53;95268.20;108824;1271;22540;-79
2023/10/31 11:22:48;;;;;;;3.70;1.40;;;;;;;15.65;63.82;95269.35;108769;1271;23044;-79
2023/10/31 11:25:23;;;;;;;5.60;1.50;;;;;;;15.59;64.19;95266.24;108736;1271;23899;-78
2023/10/31 11:27:54;;;;;;;3.80;1.90;;;;;;;15.51;64.56;95267.67;108759;1271;22527;-78
2023/10/31 11:30:30;;;;;;;2.70;1.50;;;;;;;15.49;64.71;95271.32;108789;1271;24276;-79
2023/10/31 11:33:05;;;;;;;2.60;1.30;;;;;;;15.48;64.87;95273.22;108801;1265;22538;-79
2023/10/31 11:35:37;;;;;;;4.30;1.80;;;;;;;15.50;65.36;95263.52;108820;1271;22539;-79
2023/10/31 11:38:10;;;;;;;4.10;1.60;;;;;;;15.51;65.53;95269.94;108769;1271;22521;-78
2023/10/31 11:41:02;;;;;;;3.50;1.50;;;;;;;15.48;65.99;95261.38;108741;1271;22526;-78
2023/10/31 11:43:56;;;;;;;2.90;1.40;;;;;;;15.41;66.42;95265.27;108743;1263;22523;-79